Time;durP1;ratioP1;P1;durP2;ratioP2;P2;SDS_P1;SDS_P2;PMS_P1;PMS_P2;Temp;Humidity;BMP_temperature;BMP_pressure;BME280_temperature;BME280_humidity;BME280_pressure;Samples;Min_cycle;Max_cycle;Signal;HPM_P1;HPM_P2
2022/03/19 00:01:02;;;;;;;11.95;5.85;;;7.60;99.90;;;;;;5054913;28;20170;-46
2022/03/19 00:03:29;;;;;;;7.72;5.15;;;7.60;99.90;;;;;;5052092;28;20175;-47
2022/03/19 00:05:54;;;;;;;10.73;5.47;;;7.60;99.90;;;;;;5052664;28;20213;-47
2022/03/19 00:08:20;;;;;;;8.25;4.60;;;7.50;99.90;;;;;;5053981;28;20170;-47
2022/03/19 00:10:46;;;;;;;9.48;4.43;;;7.50;99.90;;;;;;5054500;28;20171;-47
2022/03/19 00:13:12;;;;;;;9.20;4.43;;;7.50;99.90;;;;;;5054024;28;20162;-47
2022/03/19 00:15:38;;;;;;;8.43;4.22;;;7.50;99.90;;;;;;5054557;28;20198;-47
2022/03/19 00:18:05;;;;;;;7.88;4.13;;;7.40;99.90;;;;;;5053004;28;20173;-47
2022/03/19 00:20:31;;;;;;;9.90;4.50;;;7.40;99.90;;;;;;5054050;28;20253;-47
2022/03/19 00:22:57;;;;;;;7.55;4.05;;;7.40;99.90;;;;;;5054415;28;20185;-47
2022/03/19 00:25:23;;;;;;;7.57;4.25;;;7.30;99.90;;;;;;5054213;28;20553;-47
2022/03/19 00:27:49;;;;;;;8.40;4.53;;;7.30;99.90;;;;;;5053593;28;20175;-47
2022/03/19 00:30:15;;;;;;;5.63;3.92;;;7.30;99.90;;;;;;5053906;28;20167;-47
2022/03/19 00:32:41;;;;;;;10.60;4.57;;;7.20;99.90;;;;;;5053845;28;20255;-47
2022/03/19 00:35:08;;;;;;;11.82;4.80;;;7.20;99.90;;;;;;5053855;28;20206;-47
2022/03/19 00:37:46;;;;;;;8.40;4.45;;;7.20;99.90;;;;;;5053824;28;20166;-47
2022/03/19 00:40:13;;;;;;;5.65;4.28;;;7.20;99.90;;;;;;5053455;28;20167;-46
2022/03/19 00:42:38;;;;;;;8.50;4.13;;;7.20;99.90;;;;;;5053799;28;20197;-47
2022/03/19 00:45:05;;;;;;;8.75;4.55;;;7.20;99.90;;;;;;5053424;28;20659;-47
2022/03/19 00:47:30;;;;;;;9.18;4.40;;;7.20;99.90;;;;;;5053610;28;20175;-47
2022/03/19 00:49:55;;;;;;;6.43;4.47;;;7.20;99.90;;;;;;5053674;28;20177;-46
2022/03/19 00:52:21;;;;;;;6.00;3.97;;;7.20;99.90;;;;;;5053748;28;20628;-47
2022/03/19 00:54:47;;;;;;;6.45;4.10;;;7.30;99.90;;;;;;5053645;28;20220;-47
2022/03/19 00:57:12;;;;;;;7.22;4.63;;;7.20;99.90;;;;;;5053902;28;20254;-47
2022/03/19 00:59:38;;;;;;;8.50;4.35;;;7.10;99.90;;;;;;5053790;28;20171;-46
2022/03/19 01:02:03;;;;;;;7.03;4.10;;;7.10;99.90;;;;;;5053830;28;20193;-46
2022/03/19 01:04:29;;;;;;;6.15;3.85;;;7.10;99.90;;;;;;5053470;28;20209;-47
2022/03/19 01:06:55;;;;;;;7.85;4.25;;;7.10;99.90;;;;;;5052561;28;20199;-47
2022/03/19 01:09:20;;;;;;;8.07;4.90;;;7.10;99.90;;;;;;5053659;28;20649;-47
2022/03/19 01:11:46;;;;;;;9.00;3.97;;;7.00;99.90;;;;;;5053365;28;20179;-47
2022/03/19 01:14:11;;;;;;;6.75;3.85;;;7.00;99.90;;;;;;5053383;28;20242;-47
2022/03/19 01:16:37;;;;;;;9.23;5.50;;;7.00;99.90;;;;;;5053368;28;20177;-47
2022/03/19 01:19:03;;;;;;;8.52;4.10;;;7.00;99.90;;;;;;5053428;28;20250;-46
2022/03/19 01:21:28;;;;;;;7.38;4.55;;;6.90;99.90;;;;;;5053237;28;20637;-47
2022/03/19 01:23:54;;;;;;;6.72;4.07;;;6.90;99.90;;;;;;5053566;28;20181;-46
2022/03/19 01:26:20;;;;;;;6.97;4.38;;;6.90;99.90;;;;;;5053278;28;20210;-47
2022/03/19 01:28:45;;;;;;;10.45;4.55;;;6.80;99.90;;;;;;5053153;28;20248;-47
2022/03/19 01:31:11;;;;;;;7.00;4.57;;;6.80;99.90;;;;;;5053298;28;20178;-46
2022/03/19 01:33:37;;;;;;;7.00;4.53;;;6.80;99.90;;;;;;5052993;28;20536;-47
2022/03/19 01:36:03;;;;;;;6.40;4.10;;;6.70;99.90;;;;;;5053150;28;20224;-47
2022/03/19 01:38:29;;;;;;;8.07;4.28;;;6.70;99.90;;;;;;5052887;28;20167;-47
2022/03/19 01:40:55;;;;;;;7.60;4.75;;;6.70;99.90;;;;;;5053373;28;20167;-47
2022/03/19 01:43:20;;;;;;;7.15;4.63;;;6.70;99.90;;;;;;5052762;28;20171;-47
2022/03/19 01:45:46;;;;;;;7.75;4.85;;;6.60;99.90;;;;;;5052459;28;20257;-47
2022/03/19 01:48:11;;;;;;;7.63;4.45;;;6.70;99.90;;;;;;5052727;28;20163;-47
2022/03/19 01:50:37;;;;;;;7.25;4.22;;;6.60;99.90;;;;;;5052670;28;20232;-46
2022/03/19 01:53:03;;;;;;;9.38;4.60;;;6.60;99.90;;;;;;5052514;28;20166;-47
2022/03/19 01:55:28;;;;;;;6.22;4.45;;;6.70;99.90;;;;;;5051988;28;20170;-47
2022/03/19 01:57:55;;;;;;;6.90;4.95;;;6.60;99.90;;;;;;5052732;28;20532;-47
2022/03/19 02:00:23;;;;;;;10.55;5.50;;;6.60;99.90;;;;;;5052704;28;20182;-47
2022/03/19 02:02:51;;;;;;;8.98;4.95;;;6.60;99.90;;;;;;5052462;28;20178;-47
2022/03/19 02:05:19;;;;;;;10.27;4.65;;;6.60;99.90;;;;;;5052518;28;20199;-47
2022/03/19 02:07:46;;;;;;;10.98;5.22;;;6.50;99.90;;;;;;5052325;28;20174;-47
2022/03/19 02:10:13;;;;;;;9.65;4.65;;;6.50;99.90;;;;;;5052541;28;20171;-47
2022/03/19 02:12:40;;;;;;;5.75;4.45;;;6.60;99.90;;;;;;5052513;28;20179;-47
2022/03/19 02:15:08;;;;;;;6.15;4.97;;;6.50;99.90;;;;;;5052270;28;20193;-47
2022/03/19 02:17:34;;;;;;;9.23;4.53;;;6.50;99.90;;;;;;5052320;28;20257;-48
2022/03/19 02:20:01;;;;;;;8.73;4.72;;;6.40;99.90;;;;;;5052215;28;20240;-47
2022/03/19 02:22:27;;;;;;;8.48;4.68;;;6.40;99.90;;;;;;5052535;28;20166;-47
2022/03/19 02:27:38;;;;;;;9.68;5.50;;;6.40;99.90;;;;;;5052317;28;20186;-47
2022/03/19 02:30:06;;;;;;;7.45;4.22;;;6.40;99.90;;;;;;5052297;28;20166;-47
2022/03/19 02:32:33;;;;;;;10.35;5.80;;;6.40;99.90;;;;;;5052024;28;20249;-47
2022/03/19 02:34:59;;;;;;;11.55;5.85;;;6.30;99.90;;;;;;5052214;28;20170;-47
2022/03/19 02:37:25;;;;;;;9.73;5.82;;;6.30;99.90;;;;;;5052269;28;20170;-47
2022/03/19 02:39:50;;;;;;;11.00;5.90;;;6.30;99.90;;;;;;5051933;28;20641;-47
2022/03/19 02:42:19;;;;;;;9.48;5.60;;;6.30;99.90;;;;;;5051900;28;20611;-47
2022/03/19 02:44:45;;;;;;;12.55;5.82;;;6.30;99.90;;;;;;5051727;28;20232;-47
2022/03/19 02:47:11;;;;;;;8.90;6.07;;;6.20;99.90;;;;;;5051778;28;20206;-47
2022/03/19 02:49:36;;;;;;;12.70;6.97;;;6.20;99.90;;;;;;5051777;28;20220;-47
2022/03/19 02:52:03;;;;;;;8.25;5.28;;;6.20;99.90;;;;;;5051818;28;20248;-46
2022/03/19 02:54:30;;;;;;;17.60;8.35;;;6.20;99.90;;;;;;5051701;28;20169;-47
2022/03/19 02:56:57;;;;;;;22.70;12.95;;;6.20;99.90;;;;;;5052342;28;20173;-47
2022/03/19 02:59:30;;;;;;;12.43;6.38;;;6.30;99.90;;;;;;5052132;28;20622;-46
2022/03/19 03:01:59;;;;;;;12.25;5.75;;;6.20;99.90;;;;;;5051027;28;20239;-47
2022/03/19 03:04:25;;;;;;;30.48;19.48;;;6.20;99.90;;;;;;5052251;28;20174;-46
2022/03/19 03:06:53;;;;;;;36.95;24.05;;;6.20;99.90;;;;;;5052205;28;20213;-47
2022/03/19 03:09:20;;;;;;;61.47;41.58;;;6.10;99.90;;;;;;5055747;28;20173;-47
2022/03/19 03:11:46;;;;;;;41.50;29.02;;;6.10;99.90;;;;;;5055518;28;20178;-47
2022/03/19 03:14:13;;;;;;;32.70;22.38;;;6.10;99.90;;;;;;5055539;28;20167;-47
2022/03/19 03:16:40;;;;;;;12.98;10.00;;;6.00;99.90;;;;;;5055829;28;20179;-47
2022/03/19 03:19:07;;;;;;;22.58;16.02;;;6.00;99.90;;;;;;5055722;28;20240;-47
2022/03/19 03:21:35;;;;;;;13.93;9.77;;;6.00;99.90;;;;;;5055434;28;20175;-47
2022/03/19 03:24:02;;;;;;;13.20;7.30;;;6.00;99.90;;;;;;5055352;28;20159;-47
2022/03/19 03:26:27;;;;;;;8.07;5.35;;;6.00;99.90;;;;;;5055369;28;20566;-47
2022/03/19 03:28:53;;;;;;;7.95;5.50;;;6.00;99.90;;;;;;5054347;28;20259;-47
2022/03/19 03:31:19;;;;;;;8.27;4.82;;;6.00;99.90;;;;;;5055285;28;20163;-47
2022/03/19 03:33:45;;;;;;;8.43;5.18;;;5.90;99.90;;;;;;5055254;28;20175;-47
2022/03/19 03:36:11;;;;;;;10.52;4.90;;;5.90;99.90;;;;;;5055180;28;20285;-47
2022/03/19 03:38:36;;;;;;;9.70;4.82;;;5.90;99.90;;;;;;5055151;28;20699;-46
2022/03/19 03:41:02;;;;;;;8.25;4.88;;;5.90;99.90;;;;;;5055143;28;20166;-47
2022/03/19 03:43:28;;;;;;;5.50;3.95;;;6.00;99.90;;;;;;5053743;28;20167;-47
2022/03/19 03:45:53;;;;;;;12.43;5.47;;;6.00;99.90;;;;;;5053841;28;20226;-46
2022/03/19 03:48:19;;;;;;;8.70;5.82;;;5.90;99.90;;;;;;5054951;28;20228;-47
2022/03/19 03:50:47;;;;;;;11.93;4.82;;;5.90;99.90;;;;;;5054839;28;20175;-46
2022/03/19 03:53:13;;;;;;;10.77;5.00;;;5.90;99.90;;;;;;5054851;28;20198;-47
2022/03/19 03:55:39;;;;;;;9.68;4.57;;;5.90;99.90;;;;;;5054798;28;20198;-47
2022/03/19 03:58:04;;;;;;;7.57;4.63;;;5.80;99.90;;;;;;5055040;28;20170;-47
2022/03/19 04:00:31;;;;;;;9.90;4.85;;;5.90;99.90;;;;;;5054860;28;20189;-47
2022/03/19 04:02:57;;;;;;;12.02;4.55;;;5.80;99.90;;;;;;5055204;28;20178;-46
2022/03/19 04:05:23;;;;;;;9.48;5.63;;;5.80;99.90;;;;;;5054869;28;20202;-46
2022/03/19 04:07:48;;;;;;;8.70;4.88;;;5.80;99.90;;;;;;5054582;28;20670;-47
2022/03/19 04:10:14;;;;;;;9.35;4.53;;;5.80;99.90;;;;;;5054483;28;20166;-47
2022/03/19 04:12:40;;;;;;;9.70;4.32;;;5.80;99.90;;;;;;5054820;28;20171;-47
2022/03/19 04:15:07;;;;;;;8.40;4.15;;;5.70;99.90;;;;;;5054468;28;20301;-47
2022/03/19 04:17:33;;;;;;;9.00;4.18;;;5.70;99.90;;;;;;5053927;28;20173;-47
2022/03/19 04:19:59;;;;;;;9.05;4.53;;;5.70;99.90;;;;;;5054380;28;20170;-47
2022/03/19 04:22:32;;;;;;;12.85;4.57;;;5.70;99.90;;;;;;5054624;28;20537;-47
2022/03/19 04:24:57;;;;;;;8.90;4.28;;;5.70;99.90;;;;;;5054486;28;20213;-46
2022/03/19 04:27:23;;;;;;;8.75;4.22;;;5.70;99.90;;;;;;5054562;28;20174;-47
2022/03/19 04:29:49;;;;;;;11.32;5.57;;;5.70;99.90;;;;;;5054180;28;20670;-47
2022/03/19 04:32:14;;;;;;;8.73;4.32;;;5.70;99.90;;;;;;5054420;28;20233;-47
2022/03/19 04:34:40;;;;;;;14.07;5.15;;;5.70;99.90;;;;;;5054059;28;20162;-46
2022/03/19 04:37:05;;;;;;;8.10;4.57;;;5.60;99.90;;;;;;5054172;28;20277;-46
2022/03/19 04:39:31;;;;;;;10.35;4.28;;;5.60;99.90;;;;;;5054002;28;20166;-46
2022/03/19 04:41:57;;;;;;;10.07;4.03;;;5.60;99.90;;;;;;5053021;28;20225;-47
2022/03/19 04:44:22;;;;;;;5.68;4.30;;;5.60;99.90;;;;;;5054490;28;20182;-47
2022/03/19 04:46:48;;;;;;;7.95;4.38;;;5.50;99.90;;;;;;5053561;28;20577;-47
2022/03/19 04:49:13;;;;;;;6.13;3.65;;;5.60;99.90;;;;;;5053822;28;20163;-46
2022/03/19 04:51:39;;;;;;;6.28;4.32;;;5.60;99.90;;;;;;5053792;28;20209;-46
2022/03/19 04:54:05;;;;;;;8.70;4.13;;;5.50;99.90;;;;;;5054041;28;20176;-46
2022/03/19 04:56:31;;;;;;;7.45;4.70;;;5.50;99.90;;;;;;5053803;28;20661;-47
2022/03/19 04:58:59;;;;;;;5.20;3.97;;;5.50;99.90;;;;;;5053992;28;20257;-46
2022/03/19 05:01:29;;;;;;;5.57;3.55;;;5.40;99.90;;;;;;5053126;28;20526;-47
2022/03/19 05:03:55;;;;;;;10.27;3.95;;;5.40;99.90;;;;;;5053857;28;20175;-47
2022/03/19 05:06:21;;;;;;;9.50;4.70;;;5.30;99.90;;;;;;5053386;28;20205;-47
2022/03/19 05:11:12;;;;;;;7.32;4.05;;;5.30;99.90;;;;;;5053418;28;20162;-47
2022/03/19 05:11:33;;;;;;;12.45;4.38;;;5.20;99.90;;;;;;5053255;28;20537;-47
2022/03/19 05:13:58;;;;;;;5.88;3.85;;;5.20;99.90;;;;;;5053250;28;20174;-47
2022/03/19 05:16:24;;;;;;;5.70;3.92;;;5.10;99.90;;;;;;5053006;28;20171;-47
2022/03/19 05:18:49;;;;;;;9.98;4.20;;;5.10;99.90;;;;;;5052939;28;20173;-47
2022/03/19 05:21:15;;;;;;;6.78;4.70;;;5.10;99.90;;;;;;5053082;28;20210;-46
2022/03/19 05:23:42;;;;;;;8.20;4.25;;;5.10;99.90;;;;;;5053391;28;20171;-46
2022/03/19 05:26:08;;;;;;;6.28;4.13;;;5.10;99.90;;;;;;5053388;28;20272;-47
2022/03/19 05:28:33;;;;;;;6.63;3.83;;;5.00;99.90;;;;;;5053071;28;20166;-47
2022/03/19 05:31:01;;;;;;;5.95;4.03;;;5.00;99.90;;;;;;5051734;28;20688;-47
2022/03/19 05:36:11;;;;;;;8.52;4.68;;;4.90;99.90;;;;;;5052966;28;20261;-47
2022/03/19 05:38:36;;;;;;;8.90;4.22;;;4.90;99.90;;;;;;5053120;28;20170;-47
2022/03/19 05:41:02;;;;;;;8.45;4.20;;;4.90;99.90;;;;;;5053107;28;20206;-47
2022/03/19 05:43:28;;;;;;;7.07;4.80;;;5.00;99.90;;;;;;5052730;28;20628;-46
2022/03/19 05:45:53;;;;;;;6.03;4.43;;;4.90;99.90;;;;;;5052890;28;20214;-47
2022/03/19 05:48:19;;;;;;;10.88;4.22;;;4.90;99.90;;;;;;5052672;28;20261;-46
2022/03/19 05:50:44;;;;;;;7.78;4.07;;;4.90;99.90;;;;;;5052511;28;20253;-47
2022/03/19 05:53:10;;;;;;;9.80;4.22;;;4.90;99.90;;;;;;5052748;28;20622;-47
2022/03/19 05:55:35;;;;;;;7.75;4.22;;;4.80;99.90;;;;;;5052606;28;20250;-47
2022/03/19 05:58:01;;;;;;;8.25;4.07;;;4.80;99.90;;;;;;5051077;28;20309;-47
2022/03/19 06:00:26;;;;;;;12.32;4.50;;;4.80;99.90;;;;;;5051784;28;20630;-48
2022/03/19 06:02:52;;;;;;;9.63;4.50;;;4.80;99.90;;;;;;5051226;28;20173;-47
2022/03/19 06:05:18;;;;;;;9.95;4.50;;;4.70;99.90;;;;;;5051013;28;20618;-48
2022/03/19 06:07:43;;;;;;;10.27;4.68;;;4.80;99.90;;;;;;5051201;28;20525;-48
2022/03/19 06:10:09;;;;;;;7.07;4.65;;;4.80;99.90;;;;;;5051100;28;20536;-47
2022/03/19 06:12:35;;;;;;;8.10;4.43;;;4.90;99.90;;;;;;5051071;28;20182;-48
2022/03/19 06:15:01;;;;;;;10.13;5.53;;;5.00;99.90;;;;;;5051004;28;20538;-47
2022/03/19 06:17:26;;;;;;;7.60;5.18;;;5.00;99.90;;;;;;5051361;28;20163;-49
2022/03/19 06:19:54;;;;;;;8.48;5.50;;;5.10;99.90;;;;;;5051072;28;20254;-48
2022/03/19 06:22:19;;;;;;;11.10;5.13;;;5.10;99.90;;;;;;5051275;28;20198;-47
2022/03/19 06:24:45;;;;;;;9.65;5.07;;;5.10;99.90;;;;;;5050891;28;20609;-48
2022/03/19 06:27:10;;;;;;;8.75;5.50;;;5.20;99.90;;;;;;5050651;28;20217;-48
2022/03/19 06:29:36;;;;;;;8.27;4.53;;;5.20;99.90;;;;;;5050804;28;20253;-47
2022/03/19 06:32:02;;;;;;;8.07;4.57;;;5.20;99.90;;;;;;5050802;28;20171;-47
2022/03/19 06:34:30;;;;;;;9.07;4.88;;;5.30;99.90;;;;;;5049588;28;20206;-47
2022/03/19 06:39:40;;;;;;;8.38;4.85;;;5.50;99.90;;;;;;5051096;28;20228;-47
2022/03/19 06:42:06;;;;;;;10.25;4.30;;;5.60;99.90;;;;;;5050803;28;20638;-48
2022/03/19 06:44:33;;;;;;;8.20;4.40;;;5.70;99.90;;;;;;5050724;28;20206;-48
2022/03/19 06:46:59;;;;;;;8.68;4.97;;;5.80;99.90;;;;;;5050458;28;20291;-47
2022/03/19 06:49:26;;;;;;;6.78;4.88;;;6.00;99.90;;;;;;5051038;28;20167;-47
2022/03/19 06:51:51;;;;;;;17.30;5.07;;;6.10;99.90;;;;;;5050897;28;20182;-48
2022/03/19 06:54:17;;;;;;;8.80;4.38;;;6.20;99.90;;;;;;5050657;28;20167;-48
2022/03/19 06:56:42;;;;;;;6.75;4.50;;;6.20;99.90;;;;;;5050692;28;20167;-48
2022/03/19 06:59:08;;;;;;;9.10;4.32;;;6.30;99.90;;;;;;5050647;28;20638;-48
2022/03/19 07:01:36;;;;;;;12.73;4.43;;;6.40;99.90;;;;;;5050683;28;20625;-48
2022/03/19 07:04:03;;;;;;;6.85;4.32;;;6.60;99.90;;;;;;5050561;28;20175;-48
2022/03/19 07:06:28;;;;;;;9.15;4.00;;;6.70;99.90;;;;;;5050395;28;20197;-47
2022/03/19 07:08:54;;;;;;;8.77;4.40;;;6.80;99.90;;;;;;5050660;28;20186;-49
2022/03/19 07:11:19;;;;;;;7.72;4.00;;;7.00;99.90;;;;;;5050515;28;20212;-47
2022/03/19 07:13:45;;;;;;;7.55;4.50;;;7.10;99.90;;;;;;5050503;28;20534;-48
2022/03/19 07:16:11;;;;;;;13.82;4.55;;;7.30;99.90;;;;;;5050456;28;20174;-47
2022/03/19 07:18:36;;;;;;;6.93;4.07;;;7.40;99.90;;;;;;5050568;28;20179;-47
2022/03/19 07:21:02;;;;;;;6.07;4.03;;;7.50;99.90;;;;;;5050276;28;20614;-48
2022/03/19 07:23:28;;;;;;;7.93;4.00;;;7.60;99.90;;;;;;5050601;28;20167;-47
2022/03/19 07:25:54;;;;;;;11.05;4.50;;;7.80;99.90;;;;;;5050595;28;20661;-48
2022/03/19 07:28:19;;;;;;;13.43;4.90;;;7.90;99.90;;;;;;5050191;28;20633;-47
2022/03/19 07:30:46;;;;;;;4.80;3.70;;;8.00;99.90;;;;;;5050526;28;20171;-47
2022/03/19 07:33:12;;;;;;;10.77;4.47;;;8.20;99.90;;;;;;5050273;28;20269;-47
2022/03/19 07:35:39;;;;;;;5.97;3.97;;;8.20;99.90;;;;;;5050479;28;20202;-47
2022/03/19 07:38:06;;;;;;;7.00;3.83;;;8.40;99.90;;;;;;5048648;28;20174;-47
2022/03/19 07:43:19;;;;;;;8.35;3.88;;;8.60;99.90;;;;;;5050364;28;20170;-47
2022/03/19 07:45:44;;;;;;;8.73;3.78;;;8.70;99.90;;;;;;5049846;28;20242;-47
2022/03/19 07:48:10;;;;;;;5.22;3.15;;;8.80;99.90;;;;;;5050032;28;20245;-48
2022/03/19 07:50:37;;;;;;;8.93;3.85;;;8.90;99.90;;;;;;5049963;28;20183;-47
2022/03/19 07:53:03;;;;;;;9.85;3.70;;;9.00;99.90;;;;;;5051094;28;20292;-47
2022/03/19 07:55:29;;;;;;;8.88;3.90;;;9.00;99.90;;;;;;5052477;28;20256;-47
2022/03/19 07:57:54;;;;;;;8.68;3.60;;;9.10;99.90;;;;;;5053764;28;20174;-48
2022/03/19 08:00:21;;;;;;;4.82;3.15;;;9.30;99.90;;;;;;5052573;28;20174;-47
2022/03/19 08:02:46;;;;;;;9.18;4.32;;;9.30;99.90;;;;;;5053844;28;20551;-47
2022/03/19 08:05:12;;;;;;;8.82;4.35;;;9.40;99.90;;;;;;5053197;28;20216;-47
2022/03/19 08:07:38;;;;;;;7.40;3.80;;;9.50;99.90;;;;;;5053074;28;20228;-47
2022/03/19 08:10:05;;;;;;;8.55;3.75;;;9.60;99.90;;;;;;5053333;28;20194;-47
2022/03/19 08:12:31;;;;;;;7.00;3.75;;;9.70;99.90;;;;;;5053348;28;20627;-47
2022/03/19 08:14:59;;;;;;;7.25;4.00;;;9.80;99.90;;;;;;5052976;28;20186;-47
2022/03/19 08:17:28;;;;;;;5.50;3.75;;;9.80;99.90;;;;;;5053528;28;20531;-47
2022/03/19 08:19:57;;;;;;;4.35;3.20;;;9.90;99.90;;;;;;5052129;28;20171;-47
2022/03/19 08:22:23;;;;;;;9.25;4.15;;;9.90;99.90;;;;;;5053167;28;20539;-48
2022/03/19 08:24:49;;;;;;;5.40;3.72;;;10.00;99.90;;;;;;5053032;28;20227;-48
2022/03/19 08:27:15;;;;;;;6.60;4.03;;;10.20;99.90;;;;;;5052553;28;20245;-48
2022/03/19 08:29:40;;;;;;;6.30;3.75;;;10.20;99.90;;;;;;5052912;28;20601;-48
2022/03/19 08:32:08;;;;;;;11.10;3.97;;;10.20;99.90;;;;;;5052883;28;20182;-48
2022/03/19 08:34:34;;;;;;;6.28;3.80;;;10.20;99.90;;;;;;5052795;28;20177;-47
2022/03/19 08:37:00;;;;;;;8.98;4.03;;;10.30;99.90;;;;;;5052985;28;20167;-47
2022/03/19 08:42:10;;;;;;;14.00;4.40;;;10.50;99.90;;;;;;5053139;28;20194;-47
2022/03/19 08:44:35;;;;;;;9.95;3.97;;;10.50;99.90;;;;;;5052858;28;20179;-47
2022/03/19 08:47:01;;;;;;;8.32;3.85;;;10.70;99.90;;;;;;5052161;28;20629;-48
2022/03/19 08:49:26;;;;;;;8.90;4.45;;;10.70;99.90;;;;;;5052440;28;20167;-47
2022/03/19 08:51:52;;;;;;;5.57;4.00;;;10.70;99.90;;;;;;5052295;28;20175;-48
2022/03/19 08:54:19;;;;;;;7.00;4.07;;;10.80;99.90;;;;;;5052089;28;20277;-48
2022/03/19 08:56:47;;;;;;;7.53;3.83;;;10.90;99.90;;;;;;5052038;28;20163;-47
2022/03/19 08:59:13;;;;;;;8.73;4.13;;;10.90;99.90;;;;;;5051899;28;20245;-48
2022/03/19 09:01:40;;;;;;;9.90;3.90;;;10.90;99.90;;;;;;5051835;28;20179;-48
2022/03/19 09:04:07;;;;;;;8.40;4.20;;;11.10;99.90;;;;;;5051685;28;20183;-48
2022/03/19 09:06:33;;;;;;;5.60;3.78;;;11.30;99.90;;;;;;5052115;28;20557;-47
2022/03/19 09:09:03;;;;;;;8.00;4.13;;;11.40;99.90;;;;;;5052180;28;20614;-46
2022/03/19 09:11:30;;;;;;;8.88;4.40;;;11.50;99.90;;;;;;5052137;28;20173;-47
2022/03/19 09:13:56;;;;;;;5.35;3.85;;;11.60;99.90;;;;;;5052553;28;20257;-47
2022/03/19 09:16:23;;;;;;;7.97;4.10;;;11.60;99.90;;;;;;5052369;28;20167;-47
2022/03/19 09:18:49;;;;;;;7.80;4.38;;;11.50;99.90;;;;;;5052314;28;20175;-47
2022/03/19 09:21:15;;;;;;;7.25;3.47;;;11.60;99.90;;;;;;5051928;28;20163;-47
2022/03/19 09:23:42;;;;;;;9.25;4.95;;;11.60;99.90;;;;;;5051873;28;20171;-47
2022/03/19 09:26:08;;;;;;;9.27;4.15;;;11.80;99.90;;;;;;5051802;28;20305;-47
2022/03/19 09:28:33;;;;;;;5.35;3.75;;;11.90;99.90;;;;;;5051976;28;20246;-47
2022/03/19 09:30:59;;;;;;;6.45;3.63;;;12.00;99.90;;;;;;5051868;28;20167;-47
2022/03/19 09:33:25;;;;;;;6.50;4.20;;;11.90;99.90;;;;;;5052424;28;20175;-47
2022/03/19 09:35:50;;;;;;;7.70;4.00;;;12.10;99.90;;;;;;5051725;28;20586;-48
2022/03/19 09:38:17;;;;;;;10.02;3.60;;;12.10;99.90;;;;;;5051659;28;20214;-47
2022/03/19 09:40:43;;;;;;;6.82;4.20;;;12.20;99.90;;;;;;5051890;28;20202;-47
2022/03/19 09:43:09;;;;;;;9.02;4.00;;;12.20;99.90;;;;;;5051850;28;20170;-47
2022/03/19 09:45:35;;;;;;;5.78;3.67;;;12.30;99.90;;;;;;5051000;28;20219;-47
2022/03/19 09:48:01;;;;;;;7.53;3.80;;;12.30;99.90;;;;;;5051446;28;20174;-47
2022/03/19 09:50:28;;;;;;;9.07;4.45;;;12.40;99.90;;;;;;5051476;28;20529;-47
2022/03/19 09:52:57;;;;;;;11.25;3.83;;;12.40;99.90;;;;;;5051842;28;20174;-47
2022/03/19 09:55:26;;;;;;;11.15;3.80;;;12.40;99.90;;;;;;5050394;28;20167;-47
2022/03/19 09:57:53;;;;;;;7.72;3.80;;;12.60;99.90;;;;;;5051250;28;20645;-48
2022/03/19 10:00:22;;;;;;;9.30;4.10;;;12.60;99.90;;;;;;5051197;28;20159;-47
2022/03/19 10:02:55;;;;;;;9.38;3.85;;;12.80;99.90;;;;;;5051633;28;20171;-47
2022/03/19 10:10:50;;;;;;;4.40;3.47;;;13.00;99.90;;;;;;5051403;28;20189;-47
2022/03/19 10:13:15;;;;;;;8.82;3.63;;;13.00;99.90;;;;;;5051058;28;20171;-47
2022/03/19 10:15:41;;;;;;;6.40;3.17;;;13.20;99.90;;;;;;5050404;28;20657;-47
2022/03/19 10:18:08;;;;;;;9.32;3.45;;;13.30;99.90;;;;;;5051068;28;20174;-47
2022/03/19 10:20:34;;;;;;;8.68;3.47;;;13.30;99.90;;;;;;5051130;28;20250;-47
2022/03/19 10:23:00;;;;;;;7.40;4.25;;;13.30;99.90;;;;;;5051288;28;20178;-46
2022/03/19 10:25:25;;;;;;;6.97;3.80;;;13.30;99.90;;;;;;5051286;28;20483;-47
2022/03/19 10:27:51;;;;;;;7.45;4.03;;;13.30;98.70;;;;;;5050836;28;20511;-47
2022/03/19 10:30:20;;;;;;;8.73;4.97;;;13.40;97.80;;;;;;5050794;28;20178;-47
2022/03/19 10:32:51;;;;;;;16.45;8.10;;;13.50;97.90;;;;;;5050929;28;20180;-47
2022/03/19 10:35:42;;;;;;;11.57;6.35;;;13.60;97.20;;;;;;5050850;28;20637;-47
2022/03/19 10:38:19;;;;;;;12.73;4.80;;;13.80;97.30;;;;;;5049688;28;20210;-47
2022/03/19 10:40:47;;;;;;;17.42;9.57;;;13.70;95.30;;;;;;5050838;28;20189;-46
2022/03/19 10:43:16;;;;;;;8.25;3.38;;;13.80;94.10;;;;;;5050970;28;20181;-47
2022/03/19 10:45:44;;;;;;;11.50;5.38;;;13.80;93.20;;;;;;5050497;28;20222;-46
2022/03/19 10:48:13;;;;;;;15.95;8.27;;;13.90;92.20;;;;;;5050553;28;20232;-47
2022/03/19 10:50:40;;;;;;;8.98;4.78;;;14.00;92.50;;;;;;5050920;28;20174;-47
2022/03/19 10:53:06;;;;;;;11.45;6.88;;;14.10;89.90;;;;;;5050731;28;20179;-47
2022/03/19 10:55:32;;;;;;;8.65;4.50;;;14.20;89.00;;;;;;5050583;28;20174;-47
2022/03/19 10:57:58;;;;;;;18.02;11.05;;;14.10;81.30;;;;;;5050445;28;20201;-47
2022/03/19 11:00:23;;;;;;;11.45;6.20;;;14.10;82.50;;;;;;5050577;28;20210;-47
2022/03/19 11:02:50;;;;;;;9.77;5.28;;;14.10;74.40;;;;;;5050617;28;20166;-47
2022/03/19 11:05:19;;;;;;;8.63;5.07;;;14.00;69.30;;;;;;5050711;28;20171;-47
2022/03/19 11:07:46;;;;;;;6.43;4.05;;;14.10;69.00;;;;;;5050429;28;20222;-47
2022/03/19 11:10:12;;;;;;;8.40;5.47;;;14.20;69.60;;;;;;5050421;28;20198;-47
2022/03/19 11:12:42;;;;;;;52.20;38.00;;;14.40;67.80;;;;;;5050612;28;20175;-47
2022/03/19 11:15:13;;;;;;;5.15;2.83;;;14.30;64.80;;;;;;5049085;28;20249;-47
2022/03/19 11:17:41;;;;;;;3.50;1.50;;;14.40;65.10;;;;;;5050352;28;20167;-47
2022/03/19 11:20:10;;;;;;;2.08;1.50;;;14.40;63.60;;;;;;5050361;28;20245;-47
2022/03/19 11:22:39;;;;;;;8.68;1.90;;;14.40;65.80;;;;;;5050450;28;20179;-47
2022/03/19 11:25:27;;;;;;;7.57;6.88;;;14.40;63.00;;;;;;5051858;28;20566;-47
2022/03/19 11:28:13;;;;;;;5.43;1.80;;;14.60;63.30;;;;;;5050634;28;20189;-47
2022/03/19 11:30:42;;;;;;;3.22;1.88;;;14.70;62.60;;;;;;5054076;28;20170;-46
2022/03/19 11:33:20;;;;;;;4.60;2.40;;;14.80;62.50;;;;;;5053766;28;20657;-47
2022/03/19 11:35:48;;;;;;;6.40;4.35;;;14.70;61.10;;;;;;5053914;28;20216;-46
2022/03/19 11:38:22;;;;;;;5.57;4.25;;;14.80;62.40;;;;;;5053848;28;20650;-46
2022/03/19 11:40:57;;;;;;;5.95;3.70;;;14.90;63.70;;;;;;5053881;28;20247;-46
2022/03/19 11:43:30;;;;;;;3.05;1.95;;;14.90;65.70;;;;;;5053778;28;20743;-46
2022/03/19 11:45:59;;;;;;;4.28;3.40;;;14.90;63.20;;;;;;5053714;28;20227;-47
2022/03/19 11:48:45;;;;;;;8.18;6.43;;;15.00;63.60;;;;;;5054138;28;20171;-47
2022/03/19 11:51:40;;;;;;;9.00;6.38;;;15.00;62.70;;;;;;5053481;28;20167;-47
2022/03/19 11:54:19;;;;;;;4.93;3.90;;;15.20;65.80;;;;;;5053823;28;20166;-47
2022/03/19 11:56:46;;;;;;;5.40;2.75;;;15.20;65.80;;;;;;5053283;28;20167;-47
2022/03/19 11:59:35;;;;;;;6.75;2.95;;;15.20;67.70;;;;;;5053393;28;20638;-47
2022/03/19 12:02:10;;;;;;;8.40;6.35;;;15.30;66.80;;;;;;5053374;28;20304;-47
2022/03/19 12:04:45;;;;;;;9.40;4.88;;;15.30;64.60;;;;;;5053540;28;20170;-47
2022/03/19 12:07:12;;;;;;;3.55;1.92;;;15.40;65.30;;;;;;5053233;28;20304;-47
2022/03/19 12:09:41;;;;;;;6.30;3.80;;;15.30;65.70;;;;;;5053041;28;20158;-47
2022/03/19 12:12:16;;;;;;;3.78;1.90;;;15.50;67.60;;;;;;5053032;28;20212;-47
2022/03/19 12:14:45;;;;;;;4.15;3.03;;;15.40;65.20;;;;;;5053145;28;20194;-47
2022/03/19 12:17:17;;;;;;;2.53;1.60;;;15.40;65.30;;;;;;5052932;28;20198;-47
2022/03/19 12:20:05;;;;;;;2.08;1.50;;;15.20;63.80;;;;;;5053110;28;20178;-47
2022/03/19 12:22:36;;;;;;;3.97;1.85;;;15.40;65.60;;;;;;5052897;28;20270;-47
2022/03/19 12:25:16;;;;;;;3.65;1.70;;;15.40;61.60;;;;;;5052954;28;20224;-48
2022/03/19 12:27:49;;;;;;;2.13;1.55;;;15.20;59.40;;;;;;5052147;28;20186;-48
2022/03/19 12:30:15;;;;;;;2.00;1.50;;;15.20;58.60;;;;;;5052393;28;20198;-48
2022/03/19 12:32:54;;;;;;;3.50;1.70;;;15.10;58.70;;;;;;5052918;28;20162;-48
2022/03/19 12:35:40;;;;;;;1.75;1.20;;;15.10;57.20;;;;;;5052940;28;20269;-48
2022/03/19 12:38:06;;;;;;;5.38;1.30;;;15.00;55.70;;;;;;5052537;28;20210;-49
2022/03/19 12:43:19;;;;;;;1.23;1.05;;;15.20;55.70;;;;;;5052701;28;20219;-48
2022/03/19 12:45:47;;;;;;;1.52;1.30;;;15.30;56.50;;;;;;5051933;28;20218;-47
2022/03/19 12:48:16;;;;;;;1.75;1.08;;;15.10;53.10;;;;;;5051059;28;20542;-48
2022/03/19 12:50:53;;;;;;;3.90;1.42;;;14.90;51.40;;;;;;5052270;28;20162;-48
2022/03/19 12:53:33;;;;;;;1.40;1.25;;;14.80;55.10;;;;;;5052291;28;20205;-47
2022/03/19 12:56:19;;;;;;;3.38;1.60;;;14.90;54.90;;;;;;5052229;28;20232;-48
2022/03/19 12:58:51;;;;;;;2.63;1.27;;;14.90;53.50;;;;;;5052213;28;20166;-48
2022/03/19 13:01:18;;;;;;;4.80;1.40;;;14.90;52.80;;;;;;5052593;28;20179;-48
2022/03/19 13:03:45;;;;;;;1.13;0.90;;;15.00;53.70;;;;;;5052057;28;20159;-47
2022/03/19 13:06:11;;;;;;;2.13;1.27;;;15.00;51.20;;;;;;5052031;28;20777;-48
2022/03/19 13:08:47;;;;;;;2.58;1.10;;;15.00;51.50;;;;;;5052304;28;20197;-48
2022/03/19 13:11:14;;;;;;;1.20;1.10;;;14.90;50.00;;;;;;5052129;28;20525;-47
2022/03/19 13:13:41;;;;;;;2.10;1.27;;;15.00;51.60;;;;;;5052392;28;20508;-48